Humidity-temperature Sensor

Selected Measurement Type: Air Temperature

 
Air Temperature [°C]     6 entries per hour
Showing data from 9/9/2019 (00:00:00 Z) to 9/6/2019 (00:01:00 Z)
Previous Next [ Day | 3-Days | 7-Days ]
First Last
Prev [ Day | 3-Days | 7-Days ] Next
First Last

Start Time:     :
End Time:     :     
Time (in GMT) :00 :50 :40 :30 :20 :10
Previous Next [ Day | 3-Days | 7-Days ]
First Last
Prev [ Day | 3-Days | 7-Days ] Next
First Last


123 => good data
MM => data is determined as missing
-- => data not received/configured
Back to Top Back to Top
9/9/2019 00:00 to 23:10 25.37 25.27 25.28 25.17 25.45 25.41
9/8/2019 23:00 to 22:10 25.57 25.62 25.89 25.81 25.85 25.78
9/8/2019 22:00 to 21:10 25.93 25.97 25.92 26.01 25.93 25.85
9/8/2019 21:00 to 20:10 25.90 25.89 25.78 25.90 26.04 25.97
9/8/2019 20:00 to 19:10 26.01 26.05 26.10 25.99 26.05 26.08
9/8/2019 19:00 to 18:10 26.15 26.02 25.93 26.00 26.06 26.05
9/8/2019 18:00 to 17:10 26.16 26.04 26.10 26.01 26.08 26.05
9/8/2019 17:00 to 16:10 26.09 26.14 26.22 26.18 26.13 26.17
9/8/2019 16:00 to 15:10 26.11 26.11 26.08 26.05 25.89 25.87
9/8/2019 15:00 to 14:10 25.94 25.87 25.85 25.85 25.83 26.15
9/8/2019 14:00 to 13:10 26.02 25.98 25.95 25.93 25.93 25.80
9/8/2019 13:00 to 12:10 25.80 25.69 25.65 25.50 25.41 25.38
9/8/2019 12:00 to 11:10 25.45 25.26 25.40 25.49 25.45 25.44
9/8/2019 11:00 to 10:10 25.51 25.26 25.32 25.41 25.71 25.67
9/8/2019 10:00 to 9:10 25.43 25.55 25.38 25.34 25.33 25.37
9/8/2019 09:00 to 8:10 25.44 25.44 25.47 25.56 25.58 25.72
9/8/2019 08:00 to 7:10 25.66 25.38 24.89 24.81 24.91 25.01
9/8/2019 07:00 to 6:10 24.91 25.19 25.41 25.92 25.82 25.84
9/8/2019 06:00 to 5:10 25.77 26.01 26.18 26.11 26.11 26.03
9/8/2019 05:00 to 4:10 26.17 26.36 26.25 26.36 26.38 26.38
9/8/2019 04:00 to 3:10 26.39 26.34 26.35 26.43 26.45 26.46
9/8/2019 03:00 to 2:10 26.47 26.41 26.38 26.39 26.39 26.42
9/8/2019 02:00 to 1:10 26.44 26.42 26.40 26.39 26.38 26.43
9/8/2019 01:00 to 0:10 26.40 26.40 26.50 26.45 26.37 26.36
9/8/2019 00:00 to 23:10 26.39 26.44 26.51 26.52 26.43 26.39
9/7/2019 23:00 to 22:10 26.43 26.41 26.46 26.44 26.48 26.45
9/7/2019 22:00 to 21:10 26.50 26.52 26.69 26.62 26.55 26.61
9/7/2019 21:00 to 20:10 26.60 26.68 26.64 26.69 26.71 26.72
9/7/2019 20:00 to 19:10 26.75 26.79 26.72 26.72 26.73 26.77
9/7/2019 19:00 to 18:10 26.74 26.68 26.70 26.81 26.73 26.72
9/7/2019 18:00 to 17:10 26.76 26.68 26.70 26.66 26.82 26.77
9/7/2019 17:00 to 16:10 26.80 26.75 26.78 26.70 26.81 26.82
9/7/2019 16:00 to 15:10 26.84 26.76 26.71 26.74 26.73 26.78
9/7/2019 15:00 to 14:10 26.80 26.76 26.65 26.57 26.46 26.45
9/7/2019 14:00 to 13:10 26.46 26.37 26.37 26.75 26.57 26.59
9/7/2019 13:00 to 12:10 26.60 26.70 26.61 26.57 26.56 26.56
9/7/2019 12:00 to 11:10 26.49 26.55 26.64 26.51 26.46 26.45
9/7/2019 11:00 to 10:10 26.26 26.41 26.34 26.24 26.17 26.39
9/7/2019 10:00 to 9:10 26.28 26.34 26.30 26.29 26.22 26.14
9/7/2019 09:00 to 8:10 26.25 26.18 26.20 26.15 26.31 26.24
9/7/2019 08:00 to 7:10 26.23 25.78 25.82 26.33 26.22 26.38
9/7/2019 07:00 to 6:10 26.41 26.51 26.36 26.31 26.36 26.39
9/7/2019 06:00 to 5:10 26.21 26.20 26.19 26.21 26.20 26.11
9/7/2019 05:00 to 4:10 25.98 26.13 26.38 26.69 26.67 26.44
9/7/2019 04:00 to 3:10 26.38 26.28 26.35 26.47 26.42 26.59
9/7/2019 03:00 to 2:10 26.53 26.62 26.59 26.89 26.72 26.66
9/7/2019 02:00 to 1:10 26.64 26.67 26.65 26.60 26.60 26.63
9/7/2019 01:00 to 0:10 26.65 26.69 26.77 26.69 26.67 26.58
9/7/2019 00:00 to 23:10 26.65 26.63 26.65 26.56 26.58 26.60
9/6/2019 23:00 to 22:10 26.50 26.51 26.60 26.26 25.67 25.38
9/6/2019 22:00 to 21:10 25.35 25.65 25.87 25.63 26.09 26.65
9/6/2019 21:00 to 20:10 27.08 26.91 26.85 26.85 26.72 26.15
9/6/2019 20:00 to 19:10 26.18 26.24 26.14 26.09 26.05 26.01
9/6/2019 19:00 to 18:10 26.10 26.28 26.68 26.61 26.58 26.50
9/6/2019 18:00 to 17:10 26.53 26.42 26.28 25.99 25.51 25.79
9/6/2019 17:00 to 16:10 25.88 25.52 25.70 25.91 25.88 26.70
9/6/2019 16:00 to 15:10 26.68 26.60 26.73 26.59 26.59 26.51
9/6/2019 15:00 to 14:10 26.57 26.43 26.50 26.58 26.56 26.60
9/6/2019 14:00 to 13:10 26.59 26.50 26.55 26.62 26.59 26.51
9/6/2019 13:00 to 12:10 26.48 26.59 26.61 26.51 26.46 26.53
9/6/2019 12:00 to 11:10 26.50 26.19 26.12 26.40 25.81 25.37
9/6/2019 11:00 to 10:10 25.52 25.69 25.53 25.62 25.81 25.40
9/6/2019 10:00 to 9:10 25.49 25.80 25.64 25.46 25.62 25.32
9/6/2019 09:00 to 8:10 25.48 25.45 25.46 25.57 25.48 25.62
9/6/2019 08:00 to 7:10 25.53 25.60 25.64 25.70 25.76 25.85
9/6/2019 07:00 to 6:10 25.62 25.43 25.64 25.56 25.67 25.78
9/6/2019 06:00 to 5:10 25.61 25.51 25.27 25.04 24.94 24.89
9/6/2019 05:00 to 4:10 24.88 24.73 24.95 24.81 24.70 24.76
9/6/2019 04:00 to 3:10 24.96 25.54 25.78 25.75 25.77 25.61
9/6/2019 03:00 to 2:10 25.94 25.96 25.97 26.01 26.18 26.00
9/6/2019 02:00 to 1:10 25.94 25.99 25.92 26.12 25.95 26.28
9/6/2019 01:00 to 0:10 26.28 26.26 26.12 26.40 26.62 26.68